Terminal Aerodrome Forecast
Issued by NWS Omaha/Valley, NE

Home | Current Version | Previous Version | Text Only | Print | Product List | Glossary Off
Versions: 1 2 3 4 5 6 7 8 9 10 11 12 13 14 15 16 17 18

000
FTUS43 KOAX 301133
TAFOFK
TAF
KOFK 301133Z 3012/3112 15003KT P6SM SCT150
      TEMPO 3012/3014 1SM BR BKN040
     FM301600 14008KT P6SM SCT050
     FM310500 15005KT P6SM BKN050=

USA.gov is the U.S. government's official web portal to all federal, state and local government web resources and services.